Time;durP1;ratioP1;P1;durP2;ratioP2;P2;SDS_P1;SDS_P2;PMS_P1;PMS_P2;Temp;Humidity;BMP_temperature;BMP_pressure;BME280_temperature;BME280_humidity;BME280_pressure;Samples;Min_cycle;Max_cycle;Signal;HPM_P1;HPM_P2
2024/04/06 00:02:23;;;;;;;;;;;;;;;18.04;49.67;99414.47;10407429;28;771;-71
2024/04/06 00:07:19;;;;;;;;;;;;;;;18.03;49.61;99419.84;10407315;28;796;-71
2024/04/06 00:12:15;;;;;;;;;;;;;;;18.02;49.59;99423.41;10407412;28;1905;-70
2024/04/06 00:17:10;;;;;;;;;;;;;;;18.01;49.81;99417.28;10408097;28;845;-71
2024/04/06 00:22:06;;;;;;;;;;;;;;;18.00;49.63;99415.59;10407907;28;829;-71
2024/04/06 00:27:02;;;;;;;;;;;;;;;17.99;49.56;99411.22;10406782;28;1297;-71
2024/04/06 00:31:58;;;;;;;;;;;;;;;17.99;49.67;99397.19;10406882;28;1921;-71
2024/04/06 00:36:57;;;;;;;;;;;;;;;17.99;49.62;99402.47;10405619;28;1114;-71
2024/04/06 00:41:53;;;;;;;;;;;;;;;17.98;49.58;99406.03;10414424;28;868;-70
2024/04/06 00:46:49;;;;;;;;;;;;;;;17.96;49.51;99414.88;10414343;28;877;-71
2024/04/06 00:51:45;;;;;;;;;;;;;;;17.96;49.54;99404.31;10413983;28;1929;-71
2024/04/06 00:56:41;;;;;;;;;;;;;;;17.95;49.59;99409.69;10413922;28;921;-71
2024/04/06 01:01:36;;;;;;;;;;;;;;;17.94;49.49;99414.06;10413696;28;879;-71
2024/04/06 01:06:32;;;;;;;;;;;;;;;17.93;49.57;99403.63;10412869;28;1012;-71
2024/04/06 01:11:28;;;;;;;;;;;;;;;17.93;49.71;99393.06;10413847;28;1906;-71
2024/04/06 01:16:24;;;;;;;;;;;;;;;17.92;49.60;99402.78;10413830;28;941;-71
2024/04/06 01:21:20;;;;;;;;;;;;;;;17.93;49.50;99403.63;10412414;28;905;-71
2024/04/06 01:26:16;;;;;;;;;;;;;;;17.91;49.68;99406.31;10412862;28;1108;-71
2024/04/06 01:31:12;;;;;;;;;;;;;;;17.90;49.66;99407.25;10412545;27;1953;-71
2024/04/06 01:36:08;;;;;;;;;;;;;;;17.90;49.52;99411.69;10413042;28;806;-71
2024/04/06 01:41:03;;;;;;;;;;;;;;;17.88;49.71;99401.19;10412199;28;787;-71
2024/04/06 01:45:59;;;;;;;;;;;;;;;17.88;49.71;99410.91;10412656;28;795;-71
2024/04/06 01:50:55;;;;;;;;;;;;;;;17.88;49.64;99416.19;10410985;28;1902;-71
2024/04/06 01:55:51;;;;;;;;;;;;;;;17.87;49.50;99419.75;10411034;28;1004;-71
2024/04/06 02:00:47;;;;;;;;;;;;;;;17.86;49.64;99423.31;10411451;28;775;-71
2024/04/06 02:05:43;;;;;;;;;;;;;;;17.85;49.63;99426.88;10410628;28;893;-71
2024/04/06 02:10:39;;;;;;;;;;;;;;;17.84;49.66;99422.50;10411544;28;1898;-71
2024/04/06 02:15:36;;;;;;;;;;;;;;;17.85;49.72;99421.59;10411387;28;901;-70
2024/04/06 02:20:32;;;;;;;;;;;;;;;17.83;49.42;99429.56;10410568;28;865;-70
2024/04/06 02:25:28;;;;;;;;;;;;;;;17.83;49.49;99431.38;10410409;28;1697;-71
2024/04/06 02:30:23;;;;;;;;;;;;;;;17.82;49.42;99419.97;10410239;28;989;-71
2024/04/06 02:35:19;;;;;;;;;;;;;;;17.81;49.67;99423.50;10409977;28;1969;-71
2024/04/06 02:40:15;;;;;;;;;;;;;;;17.81;49.57;99426.16;10409826;28;795;-71
2024/04/06 02:45:11;;;;;;;;;;;;;;;17.81;49.39;99430.56;10410267;27;810;-71
2024/04/06 02:50:07;;;;;;;;;;;;;;;17.80;49.61;99418.34;10409503;28;878;-70
2024/04/06 02:55:04;;;;;;;;;;;;;;;17.80;49.66;99419.19;10409237;28;1875;-71
2024/04/06 03:00:01;;;;;;;;;;;;;;;17.79;49.43;99406.03;10409622;28;844;-71
2024/04/06 03:04:56;;;;;;;;;;;;;;;17.78;49.67;99410.47;10408960;28;774;-71
2024/04/06 03:09:52;;;;;;;;;;;;;;;17.78;49.59;99414.88;10410010;28;952;-71
2024/04/06 03:14:48;;;;;;;;;;;;;;;17.77;49.65;99418.47;10408528;28;1897;-71
2024/04/06 03:19:44;;;;;;;;;;;;;;;17.77;49.60;99405.28;10409075;28;786;-71
2024/04/06 03:24:40;;;;;;;;;;;;;;;17.76;49.58;99393.84;10407682;28;1234;-71
2024/04/06 03:29:36;;;;;;;;;;;;;;;17.75;49.55;99378.97;10408739;28;881;-71
2024/04/06 03:34:32;;;;;;;;;;;;;;;17.73;49.48;99368.50;10408624;28;1971;-71
2024/04/06 03:39:28;;;;;;;;;;;;;;;17.74;49.43;99372.00;10407332;28;965;-71
2024/04/06 03:44:24;;;;;;;;;;;;;;;17.73;49.57;99368.50;10407253;28;860;-71
2024/04/06 03:49:20;;;;;;;;;;;;;;;17.73;49.53;99365.00;10407195;28;948;-71
2024/04/06 03:54:16;;;;;;;;;;;;;;;17.72;49.65;99369.44;10406963;28;1967;-71
2024/04/06 03:59:13;;;;;;;;;;;;;;;17.71;49.58;99367.75;10407433;28;952;-70
2024/04/06 04:04:10;;;;;;;;;;;;;;;17.70;49.60;99387.09;10407388;28;813;-71
2024/04/06 04:09:06;;;;;;;;;;;;;;;17.72;49.54;99390.53;10407309;28;807;-70
2024/04/06 04:14:02;;;;;;;;;;;;;;;17.73;49.66;99378.19;10411579;28;1968;-71
2024/04/06 04:18:58;;;;;;;;;;;;;;;17.72;49.67;99385.25;10415918;28;872;-71
2024/04/06 04:23:53;;;;;;;;;;;;;;;17.72;49.44;99395.78;10415923;28;944;-71
2024/04/06 04:28:49;;;;;;;;;;;;;;;17.74;49.45;99401.84;10416105;28;1198;-71
2024/04/06 04:33:45;;;;;;;;;;;;;;;17.75;49.58;99405.34;10414943;28;1909;-71
2024/04/06 04:38:41;;;;;;;;;;;;;;;17.77;49.38;99398.22;10414714;28;838;-70
2024/04/06 04:43:37;;;;;;;;;;;;;;;17.80;49.43;99416.53;10414521;28;864;-70
2024/04/06 04:48:33;;;;;;;;;;;;;;;17.81;49.62;99412.13;10414311;28;873;-71
2024/04/06 04:53:29;;;;;;;;;;;;;;;17.84;49.59;99402.31;10414672;28;1897;-71
2024/04/06 04:58:25;;;;;;;;;;;;;;;17.86;49.61;99403.06;10413675;28;1004;-71
2024/04/06 05:03:21;;;;;;;;;;;;;;;17.89;49.48;99386.22;10413805;28;825;-71
2024/04/06 05:08:17;;;;;;;;;;;;;;;17.91;49.51;99376.47;10413608;28;861;-70
2024/04/06 05:13:14;;;;;;;;;;;;;;;17.93;49.36;99371.97;10413309;28;1902;-71
2024/04/06 05:18:10;;;;;;;;;;;;;;;17.95;49.31;99372.75;10413082;28;984;-76
2024/04/06 05:23:06;;;;;;;;;;;;;;;17.96;49.59;99369.19;10412239;28;898;-76
2024/04/06 05:28:02;;;;;;;;;;;;;;;17.97;49.35;99368.25;10412670;28;1147;-76
2024/04/06 05:32:58;;;;;;;;;;;;;;;17.99;49.36;99381.38;10412714;28;1917;-75
2024/04/06 05:37:53;;;;;;;;;;;;;;;17.99;49.34;99387.50;10413224;28;830;-75
2024/04/06 05:42:49;;;;;;;;;;;;;;;18.02;49.31;99394.41;10412167;28;913;-75
2024/04/06 05:47:45;;;;;;;;;;;;;;;18.03;49.26;99389.06;10412039;28;875;-74
2024/04/06 05:52:41;;;;;;;;;;;;;;;18.05;49.37;99376.66;10411749;28;1889;-74
2024/04/06 05:57:37;;;;;;;;;;;;;;;18.05;49.33;99366.09;10412233;27;926;-74
2024/04/06 06:02:33;;;;;;;;;;;;;;;18.05;49.33;99368.75;10411419;28;881;-75
2024/04/06 06:07:29;;;;;;;;;;;;;;;18.06;49.27;99362.53;10411831;28;913;-74
2024/04/06 06:12:25;;;;;;;;;;;;;;;18.07;49.34;99366.84;10410867;28;1948;-75
2024/04/06 06:17:20;;;;;;;;;;;;;;;18.08;49.20;99365.94;10410765;28;876;-75
2024/04/06 06:22:16;;;;;;;;;;;;;;;18.08;49.22;99371.22;10410626;28;778;-75
2024/04/06 06:27:12;;;;;;;;;;;;;;;18.07;49.46;99369.50;10409891;28;1242;-75
2024/04/06 06:32:08;;;;;;;;;;;;;;;18.07;49.32;99369.50;10410116;27;1968;-75
2024/04/06 06:37:04;;;;;;;;;;;;;;;18.07;49.14;99361.56;10409728;28;791;-75
2024/04/06 06:42:00;;;;;;;;;;;;;;;18.08;49.11;99357.19;10410453;28;874;-83
2024/04/06 06:46:56;;;;;;;;;;;;;;;18.08;49.29;99363.31;10409708;28;842;-75
2024/04/06 06:51:52;;;;;;;;;;;;;;;18.08;49.13;99381.75;10408265;28;1894;-74
2024/04/06 06:56:47;;;;;;;;;;;;;;;18.10;49.26;99390.47;10409363;28;952;-74
2024/04/06 07:01:43;;;;;;;;;;;;;;;18.11;49.12;99386.88;10409097;28;829;-70
2024/04/06 07:06:39;;;;;;;;;;;;;;;18.14;49.32;99380.59;10409707;28;943;-70
2024/04/06 07:11:35;;;;;;;;;;;;;;;18.16;49.15;99363.75;10408666;28;1951;-69
2024/04/06 07:16:31;;;;;;;;;;;;;;;18.18;49.26;99366.31;10408616;28;789;-70
2024/04/06 07:21:27;;;;;;;;;;;;;;;18.20;49.21;99368.88;10408439;28;819;-69
2024/04/06 07:26:24;;;;;;;;;;;;;;;18.21;49.44;99366.19;10408693;28;1143;-69
2024/04/06 07:31:20;;;;;;;;;;;;;;;18.22;49.48;99359.97;10408389;28;1963;-69
2024/04/06 07:36:15;;;;;;;;;;;;;;;18.23;49.44;99374.84;10408146;28;956;-69
2024/04/06 07:41:11;;;;;;;;;;;;;;;18.25;49.43;99374.78;10407345;28;1008;-70
2024/04/06 07:46:07;;;;;;;;;;;;;;;18.27;49.59;99370.28;10407786;28;941;-69
2024/04/06 07:51:03;;;;;;;;;;;;;;;18.29;49.35;99377.19;10407005;28;1890;-69
2024/04/06 07:55:59;;;;;;;;;;;;;;;18.30;49.35;99372.75;10407517;28;893;-69
2024/04/06 08:00:55;;;;;;;;;;;;;;;18.32;49.46;99362.97;10407551;28;771;-69
2024/04/06 08:05:51;;;;;;;;;;;;;;;18.33;49.37;99381.34;10407876;28;777;-70
2024/04/06 08:10:47;;;;;;;;;;;;;;;18.35;49.39;99365.47;10407276;28;972;-74
2024/04/06 08:15:43;;;;;;;;;;;;;;;18.36;49.51;99369.78;10407029;28;1960;-75
2024/04/06 08:20:39;;;;;;;;;;;;;;;18.36;49.39;99365.38;10408038;28;866;-76
2024/04/06 08:25:35;;;;;;;;;;;;;;;18.36;49.41;99360.09;10407449;28;1704;-73
2024/04/06 08:30:30;;;;;;;;;;;;;;;18.37;49.25;99350.41;10407548;28;885;-73
2024/04/06 08:35:26;;;;;;;;;;;;;;;18.37;49.27;99345.13;10406344;28;1906;-74
2024/04/06 08:40:22;;;;;;;;;;;;;;;18.39;49.32;99332.69;10407457;28;872;-75
2024/04/06 08:45:20;;;;;;;;;;;;;;;18.40;49.26;99326.50;10406728;28;917;-71
2024/04/06 08:50:16;;;;;;;;;;;;;;;18.42;49.10;99326.41;10406548;28;869;-75
2024/04/06 08:55:12;;;;;;;;;;;;;;;18.42;49.22;99323.75;10407508;28;1944;-74
2024/04/06 09:00:11;;;;;;;;;;;;;;;18.41;49.00;99320.28;10409935;28;925;-74
2024/04/06 09:05:07;;;;;;;;;;;;;;;18.43;49.21;99320.22;10413710;28;845;-74
2024/04/06 09:10:03;;;;;;;;;;;;;;;18.43;49.24;99325.47;10413597;28;889;-74
2024/04/06 09:14:59;;;;;;;;;;;;;;;18.44;49.24;99314.81;10414178;28;1951;-74
2024/04/06 09:19:55;;;;;;;;;;;;;;;18.44;48.98;99306.06;10413716;27;805;-74
2024/04/06 09:24:51;;;;;;;;;;;;;;;18.46;49.08;99312.13;10413486;28;1257;-74
2024/04/06 09:29:47;;;;;;;;;;;;;;;18.46;48.94;99320.88;10412998;28;870;-74
2024/04/06 09:34:43;;;;;;;;;;;;;;;18.46;48.81;99307.69;10412399;28;1913;-74
2024/04/06 09:39:39;;;;;;;;;;;;;;;18.47;49.04;99301.50;10412959;28;856;-74
2024/04/06 09:44:35;;;;;;;;;;;;;;;18.48;48.74;99297.06;10412916;28;881;-74
2024/04/06 09:49:31;;;;;;;;;;;;;;;18.49;48.82;99296.97;10411997;28;859;-74
2024/04/06 09:54:27;;;;;;;;;;;;;;;18.50;48.82;99284.66;10411186;28;1893;-74
2024/04/06 09:59:22;;;;;;;;;;;;;;;18.52;48.88;99272.19;10411601;28;881;-74
2024/04/06 10:04:18;;;;;;;;;;;;;;;18.52;48.59;99259.88;10411350;28;931;-74
2024/04/06 10:09:14;;;;;;;;;;;;;;;18.52;48.72;99246.69;10410688;28;956;-74
2024/04/06 10:14:10;;;;;;;;;;;;;;;18.53;48.75;99250.16;10410819;28;1944;-74
2024/04/06 10:19:06;;;;;;;;;;;;;;;18.52;48.76;99236.13;10411274;28;814;-74
2024/04/06 10:24:02;;;;;;;;;;;;;;;18.54;48.84;99230.75;10410486;28;924;-74
2024/04/06 10:28:58;;;;;;;;;;;;;;;18.54;48.68;99213.13;10410490;28;890;-74
2024/04/06 10:33:54;;;;;;;;;;;;;;;18.58;48.47;99208.53;10410729;28;1979;-74
2024/04/06 10:38:51;;;;;;;;;;;;;;;18.58;48.66;99201.47;10409932;28;1033;-74
2024/04/06 10:43:49;;;;;;;;;;;;;;;18.59;48.75;99189.97;10409184;28;920;-74
2024/04/06 10:48:45;;;;;;;;;;;;;;;18.62;48.58;99187.16;10410150;28;869;-74
2024/04/06 10:53:41;;;;;;;;;;;;;;;18.64;48.50;99186.22;10409253;28;1971;-74
2024/04/06 10:58:37;;;;;;;;;;;;;;;18.64;48.52;99173.88;10409769;28;815;-74
2024/04/06 11:03:33;;;;;;;;;;;;;;;18.64;48.59;99157.19;10409000;28;945;-74
2024/04/06 11:08:28;;;;;;;;;;;;;;;18.64;48.65;99165.09;10408868;28;773;-74
2024/04/06 11:13:24;;;;;;;;;;;;;;;18.62;48.59;99173.94;10408583;28;1964;-74
2024/04/06 11:18:20;;;;;;;;;;;;;;;18.63;48.62;99174.81;10408533;28;866;-74
2024/04/06 11:23:16;;;;;;;;;;;;;;;18.64;48.72;99183.59;10408080;28;858;-74
2024/04/06 11:28:12;;;;;;;;;;;;;;;18.68;48.45;99179.81;10408100;28;1302;-74
2024/04/06 11:33:08;;;;;;;;;;;;;;;18.68;48.30;99158.69;10408014;28;2007;-73
2024/04/06 11:38:04;;;;;;;;;;;;;;;18.68;48.30;99156.06;10408527;28;941;-74
2024/04/06 11:42:59;;;;;;;;;;;;;;;18.70;48.55;99167.41;10407822;28;880;-74
2024/04/06 11:47:55;;;;;;;;;;;;;;;18.70;48.28;99173.53;10407722;28;1001;-74
2024/04/06 11:52:51;;;;;;;;;;;;;;;18.71;48.14;99175.25;10408450;28;1897;-74
2024/04/06 11:57:47;;;;;;;;;;;;;;;18.71;48.38;99177.88;10408118;28;881;-74
2024/04/06 12:02:43;;;;;;;;;;;;;;;18.73;48.18;99165.44;10407408;28;936;-74
2024/04/06 12:07:39;;;;;;;;;;;;;;;18.75;48.13;99168.03;10407326;28;765;-74
2024/04/06 12:12:35;;;;;;;;;;;;;;;18.76;48.14;99161.81;10407186;28;2055;-74
2024/04/06 12:17:30;;;;;;;;;;;;;;;18.78;48.01;99154.63;10407104;28;863;-74
2024/04/06 12:22:26;;;;;;;;;;;;;;;18.77;48.28;99158.22;10407667;28;830;-73
2024/04/06 12:27:22;;;;;;;;;;;;;;;18.78;48.18;99155.50;10407497;28;1131;-73
2024/04/06 12:32:18;;;;;;;;;;;;;;;18.79;48.17;99145.81;10406509;28;1969;-74
2024/04/06 12:37:14;;;;;;;;;;;;;;;18.81;47.99;99142.13;10414151;28;780;-74
2024/04/06 12:42:10;;;;;;;;;;;;;;;18.82;48.07;99135.06;10414659;28;833;-74
2024/04/06 12:47:06;;;;;;;;;;;;;;;18.84;48.22;99130.53;10415330;27;826;-74
2024/04/06 12:52:02;;;;;;;;;;;;;;;18.85;47.97;99126.97;10414967;28;1893;-74
2024/04/06 13:02:12;;;;;;;;;;;;;;;18.88;47.86;99129.41;10413515;28;626;-74
2024/04/06 13:07:08;;;;;;;;;;;;;;;18.88;47.87;99123.28;10413687;28;880;-74
2024/04/06 13:12:04;;;;;;;;;;;;;;;18.89;47.87;99115.28;10414101;28;1898;-74
2024/04/06 13:17:00;;;;;;;;;;;;;;;18.91;47.91;99118.66;10413834;28;905;-73
2024/04/06 13:21:55;;;;;;;;;;;;;;;18.96;47.76;99113.97;10413949;28;956;-73
2024/04/06 13:26:52;;;;;;;;;;;;;;;18.97;47.80;99107.78;10412911;28;1209;-74
2024/04/06 13:31:48;;;;;;;;;;;;;;;18.99;47.66;99112.94;10413220;28;1910;-74
2024/04/06 13:36:44;;;;;;;;;;;;;;;19.01;47.75;99105.78;10412494;27;889;-74
2024/04/06 13:41:40;;;;;;;;;;;;;;;19.02;47.60;99099.56;10411753;28;854;-73
2024/04/06 13:46:36;;;;;;;;;;;;;;;19.02;47.78;99102.19;10411106;28;880;-74
2024/04/06 13:51:31;;;;;;;;;;;;;;;19.03;47.52;99083.63;10412184;28;1897;-75
2024/04/06 13:56:27;;;;;;;;;;;;;;;19.03;47.61;99096.84;10411780;28;933;-74
2024/04/06 14:01:23;;;;;;;;;;;;;;;19.03;47.67;99096.00;10410964;28;764;-74
2024/04/06 14:06:19;;;;;;;;;;;;;;;19.03;47.83;99081.00;10411341;28;826;-75
2024/04/06 14:11:15;;;;;;;;;;;;;;;19.03;47.68;99075.72;10411033;28;1897;-75
2024/04/06 14:16:11;;;;;;;;;;;;;;;19.05;47.70;99073.00;10410987;28;869;-74
2024/04/06 14:21:07;;;;;;;;;;;;;;;19.09;47.61;99074.50;10410727;28;920;-75
2024/04/06 14:26:02;;;;;;;;;;;;;;;19.13;47.64;99069.91;10410698;28;1101;-74
2024/04/06 14:30:58;;;;;;;;;;;;;;;19.08;47.59;99066.69;10410708;28;803;-74
2024/04/06 14:35:54;;;;;;;;;;;;;;;19.07;47.73;99064.94;10409854;28;1910;-74
2024/04/06 14:40:50;;;;;;;;;;;;;;;19.08;47.46;99067.53;10409699;28;814;-74
2024/04/06 14:45:46;;;;;;;;;;;;;;;19.17;47.43;99088.09;10408970;28;1087;-74
2024/04/06 14:50:42;;;;;;;;;;;;;;;19.29;47.22;99090.97;10409949;28;933;-74
2024/04/06 14:55:38;;;;;;;;;;;;;;;19.29;47.21;99105.00;10409039;28;1889;-76
2024/04/06 15:00:34;;;;;;;;;;;;;;;19.32;47.05;99122.47;10408759;28;842;-74
2024/04/06 15:05:30;;;;;;;;;;;;;;;19.42;46.94;99136.84;10409463;28;892;-75
2024/04/06 15:10:26;;;;;;;;;;;;;;;19.46;47.10;99135.72;10409388;28;811;-76
2024/04/06 15:15:22;;;;;;;;;;;;;;;19.41;47.18;99135.13;10407740;28;1897;-77
2024/04/06 15:20:17;;;;;;;;;;;;;;;19.38;47.28;99146.72;10408887;28;857;-76
2024/04/06 15:25:13;;;;;;;;;;;;;;;19.37;47.31;99157.41;10408506;28;1292;-76
2024/04/06 15:30:09;;;;;;;;;;;;;;;19.34;47.39;99139.09;10407366;28;913;-80
2024/04/06 15:35:05;;;;;;;;;;;;;;;19.30;47.15;99138.41;10408314;28;1917;-74
2024/04/06 15:40:01;;;;;;;;;;;;;;;19.28;47.27;99121.78;10407760;28;910;-75
2024/04/06 15:44:57;;;;;;;;;;;;;;;19.25;47.36;99106.97;10408173;28;880;-74
2024/04/06 15:49:53;;;;;;;;;;;;;;;19.24;47.25;99110.56;10407587;28;837;-73
2024/04/06 15:54:49;;;;;;;;;;;;;;;19.24;47.29;99107.09;10407332;28;1898;-75
2024/04/06 15:59:45;;;;;;;;;;;;;;;19.22;47.13;99106.31;10406638;28;1013;-74
2024/04/06 16:04:41;;;;;;;;;;;;;;;19.23;47.15;99115.94;10407466;28;965;-74
2024/04/06 16:09:37;;;;;;;;;;;;;;;19.22;47.30;99117.72;10410380;28;993;-74
2024/04/06 16:14:32;;;;;;;;;;;;;;;19.21;47.12;99112.56;10416099;28;1952;-75
2024/04/06 16:19:29;;;;;;;;;;;;;;;19.20;47.31;99124.03;10415343;27;958;-74
2024/04/06 16:24:25;;;;;;;;;;;;;;;19.21;47.17;99125.75;10415466;28;1395;-74
2024/04/06 16:29:21;;;;;;;;;;;;;;;19.19;47.30;99111.78;10415070;28;783;-74
2024/04/06 16:34:17;;;;;;;;;;;;;;;19.19;47.32;99132.91;10415304;28;1956;-69
2024/04/06 16:39:13;;;;;;;;;;;;;;;19.18;46.98;99121.50;10415175;28;881;-72
2024/04/06 16:44:08;;;;;;;;;;;;;;;19.18;47.33;99129.44;10414382;27;769;-72
2024/04/06 16:49:05;;;;;;;;;;;;;;;19.17;47.46;99140.94;10414764;28;938;-73
2024/04/06 16:54:01;;;;;;;;;;;;;;;19.18;47.34;99158.50;10413954;28;1902;-74
2024/04/06 16:58:56;;;;;;;;;;;;;;;19.17;47.30;99158.56;10414390;28;931;-74
2024/04/06 17:03:52;;;;;;;;;;;;;;;19.18;47.41;99160.28;10413271;28;1116;-74
2024/04/06 17:08:49;;;;;;;;;;;;;;;19.17;47.42;99155.94;10414085;28;853;-75
2024/04/06 17:13:45;;;;;;;;;;;;;;;19.17;47.43;99158.56;10413531;28;1897;-72
2024/04/06 17:18:41;;;;;;;;;;;;;;;19.16;47.55;99156.88;10413087;28;811;-73
2024/04/06 17:23:37;;;;;;;;;;;;;;;19.16;47.37;99152.44;10413467;28;897;-73
2024/04/06 17:28:33;;;;;;;;;;;;;;;19.17;47.50;99158.56;10414262;28;1208;-72
2024/04/06 17:33:29;;;;;;;;;;;;;;;19.16;47.47;99155.09;10412331;28;1902;-73
2024/04/06 17:38:26;;;;;;;;;;;;;;;19.16;47.51;99160.38;10412910;28;885;-75
2024/04/06 17:43:24;;;;;;;;;;;;;;;19.16;47.52;99170.09;10412665;28;884;-74
2024/04/06 17:48:20;;;;;;;;;;;;;;;19.16;47.55;99172.72;10411885;28;1205;-74
2024/04/06 17:53:16;;;;;;;;;;;;;;;19.16;47.63;99175.38;10411619;28;1942;-76
2024/04/06 17:58:14;;;;;;;;;;;;;;;19.15;47.68;99168.38;10411982;28;838;-75
2024/04/06 18:03:10;;;;;;;;;;;;;;;19.15;47.77;99173.66;10411931;28;859;-74
2024/04/06 18:08:06;;;;;;;;;;;;;;;19.15;47.50;99181.56;10410618;28;999;-70
2024/04/06 18:13:02;;;;;;;;;;;;;;;19.15;47.52;99173.66;10410825;28;1956;-73
2024/04/06 18:17:58;;;;;;;;;;;;;;;19.15;47.70;99173.66;10410746;28;1028;-75
2024/04/06 18:22:54;;;;;;;;;;;;;;;19.14;47.58;99188.66;10409918;28;1018;-74
2024/04/06 18:27:50;;;;;;;;;;;;;;;19.14;47.58;99185.19;10410609;28;1142;-74
2024/04/06 18:32:46;;;;;;;;;;;;;;;19.14;47.79;99187.81;10409766;28;1910;-75
2024/04/06 18:37:42;;;;;;;;;;;;;;;19.14;47.62;99188.66;10410541;28;857;-74
2024/04/06 18:42:38;;;;;;;;;;;;;;;19.14;47.86;99187.81;10409223;28;862;-75
2024/04/06 18:47:35;;;;;;;;;;;;;;;19.14;47.77;99188.66;10409525;28;825;-72
2024/04/06 18:52:31;;;;;;;;;;;;;;;19.14;47.69;99199.22;10409246;28;1885;-72
2024/04/06 18:57:27;;;;;;;;;;;;;;;19.15;47.95;99205.34;10409771;28;846;-73
2024/04/06 19:02:25;;;;;;;;;;;;;;;19.15;48.04;99200.94;10409015;28;901;-73
2024/04/06 19:07:21;;;;;;;;;;;;;;;19.15;47.91;99205.34;10409680;28;838;-73
2024/04/06 19:12:17;;;;;;;;;;;;;;;19.14;48.00;99201.88;10408568;28;1889;-73
2024/04/06 19:17:13;;;;;;;;;;;;;;;19.15;47.98;99202.72;10408713;28;870;-73
2024/04/06 19:22:09;;;;;;;;;;;;;;;19.14;47.95;99204.50;10408912;28;929;-73
2024/04/06 19:27:05;;;;;;;;;;;;;;;19.15;47.92;99200.06;10408409;28;1099;-73
2024/04/06 19:32:00;;;;;;;;;;;;;;;19.14;47.84;99201.88;10408608;28;1910;-73
2024/04/06 19:36:56;;;;;;;;;;;;;;;19.14;47.95;99193.94;10407904;28;881;-73
2024/04/06 19:41:52;;;;;;;;;;;;;;;19.14;48.09;99193.94;10407318;28;945;-73
2024/04/06 19:46:48;;;;;;;;;;;;;;;19.15;48.00;99184.22;10407527;28;810;-74
2024/04/06 19:51:44;;;;;;;;;;;;;;;19.15;47.88;99181.56;10406890;28;1955;-74
2024/04/06 19:56:40;;;;;;;;;;;;;;;19.15;47.95;99181.56;10407554;28;810;-74
2024/04/06 20:01:36;;;;;;;;;;;;;;;19.15;47.99;99178.94;10407373;28;849;-74
2024/04/06 20:06:31;;;;;;;;;;;;;;;19.15;47.86;99171.00;10407896;28;880;-75
2024/04/06 20:11:27;;;;;;;;;;;;;;;19.15;48.02;99171.88;10407137;28;1902;-74
2024/04/06 20:16:23;;;;;;;;;;;;;;;19.16;47.94;99155.09;10407106;28;879;-74
2024/04/06 20:21:19;;;;;;;;;;;;;;;19.16;47.97;99144.53;10407807;28;815;-73
2024/04/06 20:26:15;;;;;;;;;;;;;;;19.17;48.01;99140.06;10407050;28;1131;-72
2024/04/06 20:31:11;;;;;;;;;;;;;;;19.16;48.17;99128.66;10406827;28;864;-74
2024/04/06 20:36:07;;;;;;;;;;;;;;;19.16;47.94;99117.25;10407364;28;1915;-73
2024/04/06 20:41:03;;;;;;;;;;;;;;;19.18;48.03;99110.09;10406744;28;870;-73
2024/04/06 20:45:59;;;;;;;;;;;;;;;19.17;47.89;99103.09;10406492;28;908;-73
2024/04/06 20:50:55;;;;;;;;;;;;;;;19.18;48.08;99104.81;10406359;28;894;-74
2024/04/06 20:55:51;;;;;;;;;;;;;;;19.18;47.86;99112.75;10409708;28;1893;-74
2024/04/06 21:00:48;;;;;;;;;;;;;;;19.17;47.98;99114.50;10413315;28;850;-73
2024/04/06 21:05:44;;;;;;;;;;;;;;;19.18;47.83;99096.88;10413664;28;833;-72
2024/04/06 21:10:39;;;;;;;;;;;;;;;19.18;47.99;99103.00;10413739;28;862;-72
2024/04/06 21:15:37;;;;;;;;;;;;;;;19.18;48.02;99107.47;10413580;28;1897;-71
2024/04/06 21:20:33;;;;;;;;;;;;;;;19.17;47.65;99098.66;10413286;27;890;-71
2024/04/06 21:25:28;;;;;;;;;;;;;;;19.17;47.72;99098.66;10413984;28;1139;-71
2024/04/06 21:30:24;;;;;;;;;;;;;;;19.18;47.76;99091.59;10412485;28;853;-72
2024/04/06 21:35:20;;;;;;;;;;;;;;;19.18;47.84;99079.25;10412755;28;1913;-71
2024/04/06 21:40:16;;;;;;;;;;;;;;;19.18;47.69;99073.97;10413322;28;862;-71
2024/04/06 21:45:12;;;;;;;;;;;;;;;19.18;47.61;99073.97;10411844;28;916;-71
2024/04/06 21:50:09;;;;;;;;;;;;;;;19.18;47.77;99078.41;10411639;28;1004;-71
2024/04/06 21:55:04;;;;;;;;;;;;;;;19.18;47.71;99071.31;10412668;28;1902;-71
2024/04/06 22:00:02;;;;;;;;;;;;;;;19.19;47.62;99069.53;10411822;28;826;-71
2024/04/06 22:04:58;;;;;;;;;;;;;;;19.19;47.61;99066.88;10412755;28;885;-71
2024/04/06 22:09:54;;;;;;;;;;;;;;;19.19;47.47;99053.66;10410886;28;928;-71
2024/04/06 22:14:50;;;;;;;;;;;;;;;19.19;47.57;99053.66;10411757;28;1897;-71
2024/04/06 22:19:46;;;;;;;;;;;;;;;19.19;47.56;99058.94;10411492;28;806;-71
2024/04/06 22:24:42;;;;;;;;;;;;;;;19.19;47.47;99075.66;10410910;28;1296;-71
2024/04/06 22:29:38;;;;;;;;;;;;;;;19.18;47.35;99079.25;10411234;28;1024;-71
2024/04/06 22:34:34;;;;;;;;;;;;;;;19.18;47.22;99060.75;10410289;28;1914;-71
2024/04/06 22:39:29;;;;;;;;;;;;;;;19.18;47.22;99058.09;10410939;28;933;-71
2024/04/06 22:44:26;;;;;;;;;;;;;;;19.18;47.32;99047.53;10410006;28;965;-71
2024/04/06 22:49:22;;;;;;;;;;;;;;;19.19;47.30;99043.09;10409783;28;881;-71
2024/04/06 22:54:18;;;;;;;;;;;;;;;19.19;47.16;99043.09;10410197;28;1905;-71
2024/04/06 22:59:16;;;;;;;;;;;;;;;19.19;47.08;99027.25;10409453;28;863;-71
2024/04/06 23:04:12;;;;;;;;;;;;;;;19.19;47.33;99033.38;10409805;28;894;-71
2024/04/06 23:09:07;;;;;;;;;;;;;;;19.19;47.07;99029.88;10409102;28;866;-71
2024/04/06 23:14:03;;;;;;;;;;;;;;;19.19;47.12;99029.88;10408869;28;1910;-71
2024/04/06 23:18:59;;;;;;;;;;;;;;;19.19;47.00;99029.88;10409927;28;909;-71
2024/04/06 23:23:55;;;;;;;;;;;;;;;19.19;47.07;99027.25;10409263;28;838;-71
2024/04/06 23:28:51;;;;;;;;;;;;;;;19.18;47.16;99023.75;10408437;27;1290;-71
2024/04/06 23:33:47;;;;;;;;;;;;;;;19.17;47.17;99026.47;10408271;28;1921;-71
2024/04/06 23:38:43;;;;;;;;;;;;;;;19.18;47.09;99031.69;10408217;28;834;-71
2024/04/06 23:43:39;;;;;;;;;;;;;;;19.19;47.16;99029.88;10408702;28;917;-71
2024/04/06 23:48:35;;;;;;;;;;;;;;;19.19;46.98;99029.88;10408927;28;869;-71
2024/04/06 23:53:31;;;;;;;;;;;;;;;19.18;47.00;99036.97;10407168;28;1898;-71
2024/04/06 23:58:26;;;;;;;;;;;;;;;19.19;47.09;99033.38;10407742;28;912;-71
